Time;durP1;ratioP1;P1;durP2;ratioP2;P2;SDS_P1;SDS_P2;PMS_P1;PMS_P2;Temp;Humidity;BMP_temperature;BMP_pressure;BME280_temperature;BME280_humidity;BME280_pressure;Samples;Min_cycle;Max_cycle;Signal;HPM_P1;HPM_P2
2021/05/24 00:00:42;;;;;;;1.63;0.80;;;14.20;58.80;;;;;;5017084;28;20033;-89
2021/05/24 00:03:08;;;;;;;1.77;1.00;;;14.10;58.20;;;;;;5014743;28;20025;-89
2021/05/24 00:05:35;;;;;;;2.28;1.00;;;14.20;58.30;;;;;;5029420;28;20049;-92
2021/05/24 00:08:02;;;;;;;2.05;1.10;;;14.10;58.30;;;;;;5033392;28;20028;-91
2021/05/24 00:10:31;;;;;;;1.45;1.05;;;14.10;58.40;;;;;;5015999;28;20060;-92
2021/05/24 00:13:01;;;;;;;1.88;1.00;;;14.10;58.50;;;;;;5033171;28;20056;-92
2021/05/24 00:15:30;;;;;;;2.38;0.93;;;14.10;58.50;;;;;;5016055;28;20013;-93
2021/05/24 00:17:56;;;;;;;1.70;1.00;;;14.10;58.50;;;;;;5033379;28;20052;-93
2021/05/24 00:20:28;;;;;;;2.35;0.80;;;14.10;58.60;;;;;;5033836;28;20111;-93
2021/05/24 00:22:55;;;;;;;3.10;0.90;;;14.10;58.60;;;;;;5033338;28;20121;-91
2021/05/24 00:25:21;;;;;;;1.65;0.90;;;14.10;58.50;;;;;;5032626;28;20793;-88
2021/05/24 00:27:49;;;;;;;1.40;0.80;;;14.20;58.50;;;;;;5029815;28;20440;-88
2021/05/24 00:30:16;;;;;;;1.60;0.80;;;14.10;58.40;;;;;;5013126;28;20030;-88
2021/05/24 00:32:41;;;;;;;0.80;0.80;;;14.20;58.30;;;;;;5024431;28;20073;-89
2021/05/24 00:35:08;;;;;;;3.80;1.25;;;14.20;58.30;;;;;;5031328;28;20041;-88
2021/05/24 00:37:34;;;;;;;1.35;0.80;;;14.30;58.30;;;;;;5010879;28;20022;-90
2021/05/24 00:40:00;;;;;;;0.90;0.60;;;14.20;58.20;;;;;;5002790;28;20113;-90
2021/05/24 00:42:26;;;;;;;1.75;1.10;;;14.30;58.20;;;;;;5011775;28;20028;-89
2021/05/24 00:44:52;;;;;;;2.15;0.80;;;14.30;58.20;;;;;;5011738;28;20151;-91
2021/05/24 00:47:18;;;;;;;1.38;0.90;;;14.30;58.20;;;;;;5014311;28;20033;-89
2021/05/24 00:49:44;;;;;;;2.17;0.90;;;14.20;58.40;;;;;;5031584;28;20029;-90
2021/05/24 00:52:11;;;;;;;1.55;0.80;;;14.30;58.40;;;;;;5024664;28;20480;-88
2021/05/24 00:54:37;;;;;;;1.77;0.80;;;14.30;58.30;;;;;;5025918;28;20134;-88
2021/05/24 00:57:03;;;;;;;3.22;0.77;;;14.30;58.30;;;;;;5000205;28;20100;-90
2021/05/24 00:59:29;;;;;;;1.95;0.90;;;14.30;58.40;;;;;;5012196;28;20029;-89
2021/05/24 01:01:55;;;;;;;2.00;0.90;;;14.30;58.70;;;;;;5031020;28;20473;-89
2021/05/24 01:04:20;;;;;;;1.15;0.70;;;14.30;58.70;;;;;;5031352;28;20033;-90
2021/05/24 01:06:47;;;;;;;1.42;0.60;;;14.30;58.70;;;;;;5032221;28;20029;-89
2021/05/24 01:09:15;;;;;;;2.83;0.95;;;14.30;58.60;;;;;;5031385;28;20048;-90
2021/05/24 01:11:40;;;;;;;1.60;0.73;;;14.30;58.70;;;;;;5032009;28;20048;-91
2021/05/24 01:14:06;;;;;;;1.23;0.60;;;14.40;58.80;;;;;;5032188;28;20041;-90
2021/05/24 01:16:32;;;;;;;1.90;0.90;;;14.40;58.80;;;;;;5032204;28;20028;-92
2021/05/24 01:18:58;;;;;;;1.63;0.90;;;14.40;58.70;;;;;;5031872;28;20040;-88
2021/05/24 01:21:24;;;;;;;1.98;0.88;;;14.40;58.70;;;;;;5031837;28;20026;-91
2021/05/24 01:23:51;;;;;;;1.80;1.10;;;14.40;58.80;;;;;;5014863;28;20110;-91
2021/05/24 01:26:19;;;;;;;1.40;0.70;;;14.40;59.00;;;;;;5032521;28;20469;-91
2021/05/24 01:28:45;;;;;;;1.90;0.68;;;14.40;59.00;;;;;;5032228;28;20017;-91
2021/05/24 01:31:11;;;;;;;1.33;0.70;;;14.40;58.90;;;;;;5014387;28;20053;-89
2021/05/24 01:33:37;;;;;;;2.58;0.77;;;14.30;58.90;;;;;;5012250;28;20083;-89
2021/05/24 01:36:07;;;;;;;1.40;0.90;;;14.30;59.00;;;;;;5012556;28;20125;-89
2021/05/24 01:38:37;;;;;;;1.35;0.63;;;14.30;59.30;;;;;;5011937;28;20030;-90
2021/05/24 01:41:08;;;;;;;2.22;0.98;;;14.30;59.40;;;;;;5021577;28;20129;-90
2021/05/24 01:43:34;;;;;;;1.73;0.70;;;14.30;59.60;;;;;;5031861;28;20017;-90
2021/05/24 01:46:00;;;;;;;0.65;0.65;;;14.30;59.60;;;;;;5032223;28;20494;-91
2021/05/24 01:48:25;;;;;;;2.35;0.80;;;14.30;59.80;;;;;;5031670;28;20092;-91
2021/05/24 01:50:52;;;;;;;0.82;0.60;;;14.20;60.00;;;;;;5014495;28;20054;-90
2021/05/24 01:53:19;;;;;;;0.60;0.60;;;14.20;60.10;;;;;;5031357;28;20040;-88
2021/05/24 01:55:45;;;;;;;1.27;0.73;;;14.20;60.00;;;;;;5031459;28;20017;-88
2021/05/24 01:58:11;;;;;;;1.52;0.77;;;14.20;60.10;;;;;;5031990;28;20033;-91
2021/05/24 02:00:37;;;;;;;1.45;0.90;;;14.20;60.30;;;;;;5032193;28;20044;-90
2021/05/24 02:03:03;;;;;;;3.15;1.08;;;14.10;60.50;;;;;;5031939;28;20021;-89
2021/05/24 02:05:29;;;;;;;1.50;0.80;;;14.10;60.70;;;;;;5030994;28;20040;-89
2021/05/24 02:07:56;;;;;;;1.30;0.63;;;14.10;60.60;;;;;;5030844;28;20025;-89
2021/05/24 02:10:25;;;;;;;2.55;0.65;;;14.10;60.60;;;;;;5031080;28;20040;-89
2021/05/24 02:12:51;;;;;;;0.98;0.77;;;14.10;60.60;;;;;;5031927;28;20087;-92
2021/05/24 02:15:20;;;;;;;1.30;0.77;;;14.10;60.60;;;;;;5032246;28;20033;-91
2021/05/24 02:17:46;;;;;;;1.42;0.80;;;14.10;61.00;;;;;;5031807;28;20033;-92
2021/05/24 02:20:12;;;;;;;1.73;0.80;;;14.10;60.90;;;;;;5014321;28;20026;-91
2021/05/24 02:22:38;;;;;;;2.13;0.82;;;14.10;61.00;;;;;;5034279;28;20030;-89
2021/05/24 02:25:06;;;;;;;1.98;0.60;;;14.10;61.10;;;;;;5017232;28;20095;-88
2021/05/24 02:27:32;;;;;;;1.17;0.65;;;14.10;61.20;;;;;;5034440;28;20044;-89
2021/05/24 02:29:57;;;;;;;2.22;0.70;;;14.10;61.20;;;;;;5034569;28;20499;-90
2021/05/24 02:32:23;;;;;;;3.10;0.85;;;14.10;61.40;;;;;;5034901;28;20025;-91
2021/05/24 02:34:49;;;;;;;1.42;0.85;;;14.00;61.40;;;;;;5035194;28;20380;-90
2021/05/24 02:37:15;;;;;;;2.15;0.90;;;14.00;61.70;;;;;;5035180;28;20538;-91
2021/05/24 02:39:40;;;;;;;1.58;0.82;;;13.90;62.00;;;;;;5016220;28;20036;-89
2021/05/24 02:42:06;;;;;;;1.55;0.70;;;13.90;62.10;;;;;;5033949;28;20017;-90
2021/05/24 02:44:32;;;;;;;1.15;0.65;;;13.90;62.10;;;;;;5034517;28;20048;-93
2021/05/24 02:46:57;;;;;;;1.83;0.80;;;13.90;62.10;;;;;;5035503;28;20034;-92
2021/05/24 02:49:23;;;;;;;2.17;0.90;;;13.90;62.20;;;;;;5016975;28;20087;-93
2021/05/24 02:51:48;;;;;;;1.60;0.95;;;13.80;62.60;;;;;;5017485;28;20382;-91
2021/05/24 02:54:14;;;;;;;2.15;0.80;;;13.80;62.80;;;;;;5033683;28;23418;-90
2021/05/24 02:56:40;;;;;;;1.38;0.90;;;13.80;62.90;;;;;;5032307;28;20031;-90
2021/05/24 02:59:05;;;;;;;1.75;0.80;;;13.70;63.20;;;;;;5033536;28;20025;-90
2021/05/24 03:01:33;;;;;;;1.38;0.90;;;13.60;63.30;;;;;;5025096;28;20028;-90
2021/05/24 03:04:00;;;;;;;1.23;0.80;;;13.60;63.50;;;;;;5017569;28;20500;-92
2021/05/24 03:06:27;;;;;;;1.77;0.80;;;13.60;63.60;;;;;;5017316;28;20041;-90
2021/05/24 03:08:53;;;;;;;1.67;0.93;;;13.60;63.50;;;;;;5034387;28;20013;-90
2021/05/24 03:11:19;;;;;;;1.48;0.80;;;13.60;63.40;;;;;;5034172;28;20094;-91
2021/05/24 03:13:45;;;;;;;1.63;0.80;;;13.60;64.20;;;;;;5015503;28;20080;-91
2021/05/24 03:16:11;;;;;;;1.75;1.10;;;13.60;63.40;;;;;;5034012;28;20026;-92
2021/05/24 03:18:36;;;;;;;1.88;0.93;;;13.60;63.80;;;;;;5017397;28;20017;-92
2021/05/24 03:21:03;;;;;;;1.23;0.93;;;13.60;63.90;;;;;;5033886;28;20014;-90
2021/05/24 03:23:29;;;;;;;2.42;0.95;;;13.50;63.90;;;;;;5005496;28;20068;-89
2021/05/24 03:25:55;;;;;;;1.25;0.85;;;13.50;63.90;;;;;;5021991;28;20472;-90
2021/05/24 03:28:20;;;;;;;2.33;0.80;;;13.50;63.90;;;;;;5012158;28;20025;-90
2021/05/24 03:30:49;;;;;;;2.85;0.90;;;13.50;64.10;;;;;;5033111;28;20448;-91
2021/05/24 03:33:15;;;;;;;2.05;0.77;;;13.60;64.10;;;;;;5015476;28;20040;-89
2021/05/24 03:35:40;;;;;;;1.10;0.50;;;13.60;64.00;;;;;;5022644;28;20021;-90
2021/05/24 03:38:06;;;;;;;2.95;0.90;;;13.60;64.00;;;;;;5026379;28;20167;-90
2021/05/24 03:40:31;;;;;;;2.65;0.77;;;13.60;63.90;;;;;;5022462;28;20029;-92
2021/05/24 03:42:57;;;;;;;1.73;0.90;;;13.60;64.10;;;;;;5029453;28;20021;-91
2021/05/24 03:45:27;;;;;;;1.88;0.90;;;13.60;64.40;;;;;;5034078;28;20022;-91
2021/05/24 03:47:53;;;;;;;2.00;0.80;;;13.50;64.70;;;;;;5003761;28;20018;-91
2021/05/24 03:50:20;;;;;;;1.83;0.80;;;13.50;64.80;;;;;;5000312;28;20025;-94
2021/05/24 03:52:47;;;;;;;1.30;0.68;;;13.40;65.00;;;;;;5031300;28;20030;-93
2021/05/24 03:55:14;;;;;;;1.13;0.90;;;13.40;65.10;;;;;;5025955;28;20049;-93
2021/05/24 03:57:40;;;;;;;1.98;1.02;;;13.40;65.30;;;;;;5014204;28;20033;-93
2021/05/24 04:00:08;;;;;;;1.63;0.88;;;13.40;65.30;;;;;;5020979;28;20029;-94
2021/05/24 04:02:34;;;;;;;4.30;1.10;;;13.50;65.30;;;;;;5012780;28;20029;-93
2021/05/24 04:05:03;;;;;;;1.42;0.82;;;13.40;65.50;;;;;;5017971;28;20418;-94
2021/05/24 04:07:29;;;;;;;2.25;0.90;;;13.40;65.60;;;;;;5015553;28;20021;-92
2021/05/24 04:09:55;;;;;;;1.98;0.90;;;13.40;65.50;;;;;;5033506;28;20546;-94
2021/05/24 04:12:21;;;;;;;0.90;0.90;;;13.40;65.50;;;;;;4999865;28;20025;-93
2021/05/24 04:14:46;;;;;;;3.80;1.10;;;13.40;65.50;;;;;;5033400;28;20488;-94
2021/05/24 04:17:15;;;;;;;1.60;0.90;;;13.30;65.70;;;;;;5033401;28;20013;-93
2021/05/24 04:19:43;;;;;;;1.65;0.93;;;13.30;65.80;;;;;;5015351;28;20273;-94
2021/05/24 04:22:09;;;;;;;1.90;0.90;;;13.20;66.10;;;;;;5032668;28;20064;-93
2021/05/24 04:24:35;;;;;;;1.00;0.70;;;13.20;65.90;;;;;;5033421;28;20021;-92
2021/05/24 04:27:01;;;;;;;1.25;0.80;;;13.30;65.90;;;;;;5015593;28;20036;-92
2021/05/24 04:29:26;;;;;;;1.77;0.95;;;13.20;66.10;;;;;;5032866;28;20447;-92
2021/05/24 04:31:52;;;;;;;2.28;0.90;;;13.20;66.20;;;;;;5033619;28;20027;-91
2021/05/24 04:34:17;;;;;;;2.42;0.90;;;13.20;66.20;;;;;;5033254;28;20040;-92
2021/05/24 04:36:43;;;;;;;1.98;1.00;;;13.20;66.20;;;;;;5033533;28;20021;-92
2021/05/24 04:39:09;;;;;;;1.25;0.70;;;13.20;66.30;;;;;;5015328;28;20029;-93
2021/05/24 04:41:35;;;;;;;1.83;0.80;;;13.30;66.40;;;;;;5015656;28;20380;-90
2021/05/24 04:44:21;;;;;;;2.38;0.90;;;13.20;66.50;;;;;;5032751;28;20016;-90
2021/05/24 04:46:47;;;;;;;2.35;0.80;;;13.20;66.50;;;;;;5031993;28;20064;-89
2021/05/24 04:49:13;;;;;;;1.00;0.80;;;13.30;66.50;;;;;;5032521;28;20518;-91
2021/05/24 04:51:39;;;;;;;1.23;0.77;;;13.30;66.60;;;;;;5033017;28;20108;-92
2021/05/24 04:54:06;;;;;;;1.45;0.90;;;13.20;66.60;;;;;;5032797;28;20136;-90
2021/05/24 04:56:33;;;;;;;0.70;0.70;;;13.30;66.70;;;;;;5015216;28;20010;-91
2021/05/24 04:58:58;;;;;;;1.45;0.90;;;13.30;66.70;;;;;;5032047;28;20034;-91
2021/05/24 05:01:24;;;;;;;2.83;0.80;;;13.30;66.80;;;;;;5015116;28;20546;-91
2021/05/24 05:03:50;;;;;;;1.38;1.00;;;13.30;66.80;;;;;;5032316;28;20036;-89
2021/05/24 05:06:15;;;;;;;2.15;0.90;;;13.30;66.90;;;;;;5032321;28;20104;-89
2021/05/24 05:08:41;;;;;;;2.45;1.10;;;13.30;66.80;;;;;;5032454;28;20384;-91
2021/05/24 05:11:06;;;;;;;2.13;0.80;;;13.30;66.70;;;;;;5032552;28;20041;-92
2021/05/24 05:13:32;;;;;;;1.25;0.80;;;13.40;66.80;;;;;;5031751;28;20040;-93
2021/05/24 05:15:57;;;;;;;3.20;1.10;;;13.40;66.70;;;;;;5033112;28;20022;-94
2021/05/24 05:18:23;;;;;;;1.83;0.80;;;13.40;66.70;;;;;;5033055;28;20038;-93
2021/05/24 05:20:49;;;;;;;1.52;0.90;;;13.40;67.00;;;;;;5032998;28;20031;-95
2021/05/24 05:23:14;;;;;;;1.33;0.85;;;13.40;66.90;;;;;;5016279;28;20083;-92
2021/05/24 05:25:40;;;;;;;2.58;1.10;;;13.40;66.80;;;;;;5016619;28;20076;-95
2021/05/24 05:28:07;;;;;;;1.23;0.80;;;13.50;67.10;;;;;;5034312;28;20040;-93
2021/05/24 05:30:33;;;;;;;1.05;0.68;;;13.50;66.80;;;;;;5014783;28;20104;-92
2021/05/24 05:32:58;;;;;;;2.67;0.77;;;13.60;66.70;;;;;;5032513;28;20130;-92
2021/05/24 05:35:24;;;;;;;1.58;0.77;;;13.60;66.30;;;;;;5032205;28;20025;-91
2021/05/24 05:37:52;;;;;;;2.67;0.90;;;13.70;66.30;;;;;;5013779;28;20108;-90
2021/05/24 05:40:18;;;;;;;1.65;0.93;;;13.70;66.10;;;;;;5032214;28;20042;-90
2021/05/24 05:42:48;;;;;;;1.20;0.70;;;13.70;66.30;;;;;;5013490;28;20025;-87
2021/05/24 05:45:24;;;;;;;2.60;0.68;;;13.80;66.20;;;;;;5027768;28;20468;-91
2021/05/24 05:47:49;;;;;;;2.15;0.80;;;13.80;66.30;;;;;;5001430;28;20034;-93
2021/05/24 05:50:20;;;;;;;2.10;0.75;;;13.90;66.40;;;;;;5012430;28;20025;-93
2021/05/24 05:52:46;;;;;;;1.95;0.90;;;13.90;66.30;;;;;;5034974;28;20014;-85
2021/05/24 05:55:11;;;;;;;1.67;0.82;;;13.90;67.20;;;;;;5034115;28;20033;-94
2021/05/24 05:57:42;;;;;;;0.52;0.50;;;14.00;66.40;;;;;;5018232;28;20247;-93
2021/05/24 06:00:08;;;;;;;2.47;0.80;;;14.00;66.00;;;;;;5034970;28;20017;-92
2021/05/24 06:02:34;;;;;;;1.77;0.80;;;14.00;65.80;;;;;;5035937;28;20026;-91
2021/05/24 06:04:59;;;;;;;2.92;0.80;;;14.10;65.60;;;;;;5036009;28;20091;-92
2021/05/24 06:07:25;;;;;;;1.10;0.70;;;14.10;65.50;;;;;;5035680;28;20021;-92
2021/05/24 06:09:50;;;;;;;1.67;0.85;;;14.10;65.40;;;;;;5034273;28;20097;-90
2021/05/24 06:12:16;;;;;;;1.60;0.90;;;14.20;65.30;;;;;;5017452;28;20022;-92
2021/05/24 06:14:41;;;;;;;1.90;0.80;;;14.20;65.70;;;;;;5018048;28;20026;-92
2021/05/24 06:17:07;;;;;;;3.42;0.82;;;14.30;64.90;;;;;;5035101;28;20033;-87
2021/05/24 06:19:33;;;;;;;1.92;1.00;;;14.30;65.00;;;;;;5034714;28;20061;-91
2021/05/24 06:22:00;;;;;;;1.48;0.80;;;14.30;65.00;;;;;;5017906;28;20028;-94
2021/05/24 06:24:25;;;;;;;2.38;0.80;;;14.30;64.90;;;;;;5018032;28;20020;-93
2021/05/24 06:26:51;;;;;;;2.03;0.63;;;14.40;64.80;;;;;;5031608;28;20021;-92
2021/05/24 06:29:24;;;;;;;1.23;0.70;;;14.40;64.50;;;;;;5035058;28;20026;-94
2021/05/24 06:31:51;;;;;;;1.45;0.80;;;14.50;64.30;;;;;;5017843;28;20512;-93
2021/05/24 06:34:17;;;;;;;1.35;0.70;;;14.50;64.30;;;;;;5017260;28;20041;-92
2021/05/24 06:36:47;;;;;;;2.25;1.00;;;14.50;64.20;;;;;;5005637;28;20022;-93
2021/05/24 06:39:13;;;;;;;1.63;0.82;;;14.60;64.10;;;;;;5034844;28;20524;-92
2021/05/24 06:41:39;;;;;;;2.92;0.77;;;14.60;63.90;;;;;;5017693;28;20033;-92
2021/05/24 06:44:05;;;;;;;1.92;0.63;;;14.70;63.70;;;;;;5017658;28;20025;-92
2021/05/24 06:46:31;;;;;;;1.17;0.60;;;14.70;63.60;;;;;;5035079;28;20546;-92
2021/05/24 06:49:00;;;;;;;0.65;0.57;;;14.80;63.40;;;;;;5017270;28;20025;-93
2021/05/24 06:51:26;;;;;;;0.70;0.50;;;14.80;63.40;;;;;;5017577;28;20021;-94
2021/05/24 06:53:52;;;;;;;2.38;0.90;;;14.90;63.30;;;;;;5017719;28;20132;-92
2021/05/24 06:56:19;;;;;;;0.70;0.50;;;14.80;63.40;;;;;;5012939;28;20563;-91
2021/05/24 06:58:44;;;;;;;1.23;0.55;;;14.80;63.60;;;;;;5033629;28;20045;-88
2021/05/24 07:01:10;;;;;;;0.40;0.40;;;14.70;63.60;;;;;;5031169;28;20065;-88
2021/05/24 07:03:35;;;;;;;0.70;0.60;;;14.70;63.60;;;;;;5024551;28;20025;-95
2021/05/24 07:06:01;;;;;;;1.30;0.68;;;14.80;63.70;;;;;;5034932;28;20432;-92
2021/05/24 07:08:26;;;;;;;0.80;0.60;;;14.70;63.60;;;;;;5020234;28;20087;-92
2021/05/24 07:10:52;;;;;;;1.05;0.70;;;14.70;63.70;;;;;;5034395;28;20021;-90
2021/05/24 07:13:18;;;;;;;0.90;0.50;;;14.60;63.90;;;;;;5032013;28;20069;-87
2021/05/24 07:15:43;;;;;;;1.75;0.70;;;14.60;64.10;;;;;;5033744;28;20026;-92
2021/05/24 07:18:09;;;;;;;1.30;0.68;;;14.60;64.40;;;;;;5014292;28;20087;-92
2021/05/24 07:20:35;;;;;;;1.33;0.50;;;14.50;64.50;;;;;;5028048;28;20025;-89
2021/05/24 07:23:01;;;;;;;0.85;0.40;;;14.50;64.80;;;;;;5020994;28;20483;-88
2021/05/24 07:25:26;;;;;;;1.17;0.60;;;14.40;64.90;;;;;;5004655;28;20030;-90
2021/05/24 07:27:52;;;;;;;0.70;0.60;;;14.40;65.10;;;;;;5018003;28;20014;-89
2021/05/24 07:30:18;;;;;;;1.33;0.60;;;14.40;65.30;;;;;;4997574;28;20029;-89
2021/05/24 07:32:44;;;;;;;0.95;0.50;;;14.40;65.50;;;;;;4997269;28;20064;-88
2021/05/24 07:35:11;;;;;;;1.27;0.70;;;14.30;65.60;;;;;;5013497;28;20026;-89
2021/05/24 07:37:36;;;;;;;1.60;0.50;;;14.30;65.90;;;;;;5012172;28;20029;-88
2021/05/24 07:40:04;;;;;;;0.63;0.50;;;14.20;66.10;;;;;;5006328;28;20500;-89
2021/05/24 07:42:29;;;;;;;0.90;0.60;;;14.20;66.20;;;;;;4998703;28;20037;-89
2021/05/24 07:44:55;;;;;;;1.42;0.50;;;14.10;66.30;;;;;;5004919;28;20021;-90
2021/05/24 07:47:21;;;;;;;3.08;0.90;;;14.10;66.30;;;;;;5005289;28;20057;-90
2021/05/24 07:49:47;;;;;;;1.00;0.50;;;14.10;66.70;;;;;;5009906;28;20045;-89
2021/05/24 07:52:13;;;;;;;0.57;0.50;;;14.00;66.80;;;;;;5026413;28;20033;-90
2021/05/24 07:54:39;;;;;;;1.27;0.60;;;14.10;66.90;;;;;;4999129;28;20030;-90
2021/05/24 07:57:06;;;;;;;0.60;0.60;;;14.10;66.90;;;;;;5012766;28;20083;-90
2021/05/24 07:59:31;;;;;;;1.13;0.60;;;14.10;67.10;;;;;;5013830;28;20032;-89
2021/05/24 08:02:00;;;;;;;1.00;0.60;;;14.10;67.20;;;;;;5028043;28;20021;-88
2021/05/24 08:04:25;;;;;;;0.70;0.55;;;14.10;67.30;;;;;;5014761;28;20099;-87
2021/05/24 08:06:51;;;;;;;0.50;0.50;;;14.20;67.40;;;;;;5015621;28;20434;-87
2021/05/24 08:09:16;;;;;;;1.83;0.60;;;14.20;67.60;;;;;;5031675;28;20032;-88
2021/05/24 08:11:42;;;;;;;0.65;0.60;;;14.20;67.60;;;;;;5031374;28;20053;-88
2021/05/24 08:14:10;;;;;;;3.28;0.95;;;14.20;67.60;;;;;;5031917;28;20136;-87
2021/05/24 08:16:35;;;;;;;1.10;0.77;;;14.20;67.70;;;;;;5006990;28;20492;-86
2021/05/24 08:19:01;;;;;;;1.45;0.70;;;14.20;68.00;;;;;;5020701;28;20054;-87
2021/05/24 08:21:27;;;;;;;0.70;0.50;;;14.20;68.10;;;;;;5021977;28;20053;-87
2021/05/24 08:23:52;;;;;;;1.27;0.70;;;14.10;68.40;;;;;;5017214;28;20029;-88
2021/05/24 08:26:18;;;;;;;0.63;0.60;;;14.10;68.50;;;;;;5022429;28;20044;-88
2021/05/24 08:28:44;;;;;;;1.15;0.80;;;14.20;68.50;;;;;;5000338;28;20032;-88
2021/05/24 08:31:09;;;;;;;0.60;0.60;;;14.20;68.60;;;;;;5016608;28;20029;-89
2021/05/24 08:33:35;;;;;;;2.03;0.80;;;14.10;68.90;;;;;;4999526;28;20038;-90
2021/05/24 08:36:01;;;;;;;2.40;0.90;;;14.10;69.10;;;;;;5011152;28;20108;-91
2021/05/24 08:38:27;;;;;;;1.65;1.02;;;14.10;69.10;;;;;;5010738;28;20459;-92
2021/05/24 08:40:52;;;;;;;2.22;1.25;;;14.10;69.40;;;;;;5013083;28;20030;-91
2021/05/24 08:43:18;;;;;;;2.40;0.88;;;14.00;69.80;;;;;;5004986;28;20503;-90
2021/05/24 08:45:44;;;;;;;1.15;0.77;;;14.00;70.00;;;;;;5010360;28;20542;-91
2021/05/24 08:48:12;;;;;;;0.80;0.80;;;14.00;69.80;;;;;;5008018;28;20052;-91
2021/05/24 08:50:39;;;;;;;2.72;1.00;;;14.10;70.00;;;;;;5002411;28;20018;-91
2021/05/24 08:53:06;;;;;;;1.23;0.70;;;14.00;70.40;;;;;;5002480;28;20041;-90
2021/05/24 08:55:32;;;;;;;0.98;0.80;;;14.00;70.40;;;;;;5008531;28;20022;-91
2021/05/24 08:57:58;;;;;;;2.53;1.10;;;14.10;70.50;;;;;;5024462;28;20356;-89
2021/05/24 09:00:23;;;;;;;1.10;1.00;;;14.10;71.00;;;;;;5026798;28;20379;-90
2021/05/24 09:02:55;;;;;;;2.38;1.38;;;14.00;71.20;;;;;;5003784;28;20499;-90
2021/05/24 09:05:27;;;;;;;0.80;0.60;;;14.00;71.30;;;;;;5000339;28;20041;-90
2021/05/24 09:07:59;;;;;;;0.90;0.90;;;14.00;71.10;;;;;;5023862;28;20030;-90
2021/05/24 09:10:27;;;;;;;1.25;0.90;;;14.00;71.30;;;;;;5025589;28;20100;-90
2021/05/24 09:12:55;;;;;;;2.53;1.23;;;14.00;71.30;;;;;;5001575;28;20076;-89
2021/05/24 09:15:22;;;;;;;2.50;0.90;;;14.00;71.40;;;;;;5021544;28;20022;-90
2021/05/24 09:17:49;;;;;;;3.70;1.20;;;14.00;71.60;;;;;;5004679;28;20411;-91
2021/05/24 09:20:26;;;;;;;1.50;0.90;;;13.90;71.80;;;;;;5003606;28;20358;-90
2021/05/24 09:23:16;;;;;;;1.65;1.27;;;13.80;71.90;;;;;;5026280;28;20018;-91
2021/05/24 09:26:10;;;;;;;4.15;1.30;;;13.70;72.00;;;;;;5020858;28;20052;-92
2021/05/24 09:28:41;;;;;;;1.27;0.90;;;13.50;72.30;;;;;;5017716;28;20468;-91
2021/05/24 09:31:25;;;;;;;1.25;0.80;;;13.40;72.60;;;;;;5001875;28;20017;-91
2021/05/24 09:33:54;;;;;;;1.85;1.00;;;13.40;72.70;;;;;;5011154;28;20525;-91
2021/05/24 09:36:20;;;;;;;1.83;1.00;;;13.40;72.80;;;;;;5023538;28;20022;-91
2021/05/24 09:38:48;;;;;;;1.88;1.10;;;13.40;72.90;;;;;;5027357;28;20029;-90
2021/05/24 09:41:17;;;;;;;1.20;0.90;;;13.50;72.70;;;;;;5023150;28;20026;-92
2021/05/24 09:44:03;;;;;;;1.33;1.00;;;13.60;72.70;;;;;;5026873;28;20026;-91
2021/05/24 09:46:29;;;;;;;2.08;0.95;;;13.60;72.30;;;;;;5025335;28;20025;-91
2021/05/24 09:49:01;;;;;;;1.42;0.90;;;13.60;71.90;;;;;;5028161;28;20388;-91
2021/05/24 09:51:31;;;;;;;1.52;0.80;;;13.70;71.80;;;;;;5008607;28;20026;-92
2021/05/24 09:54:17;;;;;;;1.63;1.00;;;13.80;71.80;;;;;;5014802;28;20084;-93
2021/05/24 09:56:46;;;;;;;2.08;1.20;;;13.70;71.90;;;;;;5023678;28;20030;-93
2021/05/24 09:59:21;;;;;;;2.05;1.15;;;13.70;71.90;;;;;;5008893;28;20037;-93
2021/05/24 10:01:52;;;;;;;1.65;1.10;;;13.80;72.00;;;;;;5005524;28;20072;-93
2021/05/24 10:04:20;;;;;;;1.83;0.90;;;13.80;71.90;;;;;;5016385;28;20080;-92
2021/05/24 10:06:46;;;;;;;1.98;1.40;;;13.80;71.70;;;;;;5009637;28;20102;-91
2021/05/24 10:09:14;;;;;;;3.10;1.50;;;13.70;71.80;;;;;;5024479;28;20030;-92
2021/05/24 10:11:43;;;;;;;1.88;1.17;;;13.60;71.90;;;;;;5001112;28;20108;-92
2021/05/24 10:14:17;;;;;;;2.92;0.88;;;13.50;71.80;;;;;;5005023;28;20057;-92
2021/05/24 10:16:48;;;;;;;4.00;1.50;;;13.50;72.20;;;;;;5038015;28;20037;-92
2021/05/24 10:19:17;;;;;;;2.33;1.30;;;13.50;72.30;;;;;;5020091;28;20017;-91
2021/05/24 10:21:48;;;;;;;6.05;1.70;;;13.40;72.50;;;;;;5020370;28;20029;-92
2021/05/24 10:24:20;;;;;;;2.42;1.30;;;13.40;73.00;;;;;;5020592;28;20492;-92
2021/05/24 10:26:46;;;;;;;1.95;0.98;;;13.40;72.90;;;;;;5020892;28;20534;-92
2021/05/24 10:29:13;;;;;;;2.10;1.30;;;13.50;72.80;;;;;;5006847;28;20021;-91
2021/05/24 10:31:40;;;;;;;1.48;1.20;;;13.50;72.90;;;;;;5018190;28;20409;-92
2021/05/24 10:34:24;;;;;;;1.55;0.90;;;13.70;72.80;;;;;;5000675;28;20056;-92
2021/05/24 10:37:09;;;;;;;2.15;1.00;;;13.80;72.70;;;;;;5000430;28;20591;-93
2021/05/24 10:39:45;;;;;;;1.27;1.08;;;13.90;72.50;;;;;;5000466;28;20369;-93
2021/05/24 10:42:14;;;;;;;1.42;1.10;;;14.10;72.40;;;;;;5005459;28;20108;-93
2021/05/24 10:44:47;;;;;;;1.67;1.30;;;14.30;71.90;;;;;;5008814;28;20014;-91
2021/05/24 10:47:27;;;;;;;1.77;1.08;;;14.30;71.50;;;;;;5027224;28;20480;-92
2021/05/24 10:50:06;;;;;;;1.55;1.17;;;14.30;71.30;;;;;;5000822;28;20022;-90
2021/05/24 10:52:35;;;;;;;1.63;0.90;;;14.50;71.30;;;;;;5009054;28;20028;-92
2021/05/24 10:55:29;;;;;;;1.67;1.00;;;14.70;71.50;;;;;;5014960;28;20030;-92
2021/05/24 10:57:56;;;;;;;1.52;1.10;;;14.70;71.20;;;;;;4987532;28;20034;-92
2021/05/24 11:00:23;;;;;;;1.15;0.93;;;14.80;71.20;;;;;;5021128;28;20353;-92
2021/05/24 11:02:56;;;;;;;2.45;1.20;;;14.90;71.00;;;;;;5024164;28;20026;-91
2021/05/24 11:05:26;;;;;;;1.92;1.20;;;14.80;71.00;;;;;;5014561;28;20034;-92
2021/05/24 11:07:54;;;;;;;2.10;1.00;;;14.70;71.10;;;;;;5014376;28;20025;-93
2021/05/24 11:10:22;;;;;;;1.83;1.27;;;14.70;71.70;;;;;;5003463;28;20021;-92
2021/05/24 11:12:55;;;;;;;2.05;1.30;;;14.50;71.80;;;;;;5033514;28;20084;-92
2021/05/24 11:15:31;;;;;;;1.15;0.90;;;14.40;72.10;;;;;;5017352;28;20042;-94
2021/05/24 11:18:00;;;;;;;1.90;1.10;;;14.30;72.50;;;;;;5016863;28;20021;-92
2021/05/24 11:20:32;;;;;;;1.63;1.20;;;14.20;73.10;;;;;;5017270;28;20144;-92
2021/05/24 11:26:14;;;;;;;1.40;1.13;;;14.30;73.70;;;;;;5030128;28;20056;-91
2021/05/24 11:28:50;;;;;;;1.23;0.88;;;14.40;73.60;;;;;;5005633;28;20049;-91
2021/05/24 11:31:19;;;;;;;1.63;0.90;;;14.40;73.40;;;;;;4999835;28;20068;-92
2021/05/24 11:33:47;;;;;;;2.72;0.77;;;14.50;73.40;;;;;;5010700;28;20531;-92
2021/05/24 11:36:39;;;;;;;0.63;0.60;;;14.50;72.90;;;;;;5020906;28;20057;-92
2021/05/24 11:39:15;;;;;;;0.77;0.60;;;14.70;72.80;;;;;;4992023;28;20112;-92
2021/05/24 11:41:59;;;;;;;1.13;0.77;;;14.80;72.80;;;;;;5031874;28;20030;-91
2021/05/24 11:44:38;;;;;;;0.63;0.63;;;14.70;72.00;;;;;;5028391;28;20714;-92
2021/05/24 11:47:09;;;;;;;0.60;0.60;;;14.70;72.20;;;;;;5003206;28;20106;-91
2021/05/24 11:49:38;;;;;;;0.52;0.52;;;14.60;71.50;;;;;;5022167;28;20079;-91
2021/05/24 11:52:08;;;;;;;0.60;0.60;;;14.70;71.70;;;;;;5026581;28;20025;-91
2021/05/24 11:54:35;;;;;;;0.60;0.60;;;14.70;71.30;;;;;;5011581;28;20686;-91
2021/05/24 11:57:04;;;;;;;0.80;0.80;;;14.70;71.00;;;;;;5009255;28;20426;-91
2021/05/24 11:59:32;;;;;;;1.15;0.73;;;14.90;71.30;;;;;;5005013;28;20033;-90
2021/05/24 12:01:59;;;;;;;0.98;0.60;;;14.80;71.20;;;;;;5011436;28;20013;-90
2021/05/24 12:04:32;;;;;;;0.88;0.80;;;15.00;71.30;;;;;;4997957;28;20048;-94
2021/05/24 12:07:08;;;;;;;0.60;0.60;;;15.10;70.40;;;;;;5012274;28;20025;-92
2021/05/24 12:10:06;;;;;;;0.82;0.60;;;15.20;69.90;;;;;;5008182;28;20576;-94
2021/05/24 12:12:38;;;;;;;0.55;0.50;;;15.10;69.50;;;;;;5028506;28;20437;-94
2021/05/24 12:15:12;;;;;;;0.65;0.63;;;15.30;69.30;;;;;;5023127;28;20053;-94
2021/05/24 12:17:38;;;;;;;1.70;0.80;;;15.40;69.30;;;;;;5026117;28;20033;-94
2021/05/24 12:20:10;;;;;;;0.75;0.60;;;15.40;69.00;;;;;;5007151;28;20045;-94
2021/05/24 12:22:43;;;;;;;0.50;0.50;;;15.30;68.50;;;;;;5003852;28;20060;-95
2021/05/24 12:25:12;;;;;;;0.90;0.60;;;15.30;68.60;;;;;;5021081;28;20578;-93
2021/05/24 12:27:37;;;;;;;0.80;0.50;;;15.20;67.30;;;;;;5001733;28;20025;-93
2021/05/24 12:30:16;;;;;;;0.40;0.40;;;15.20;67.70;;;;;;5019159;28;20543;-92
2021/05/24 12:32:50;;;;;;;0.40;0.30;;;15.30;68.00;;;;;;4995612;28;20080;-93
2021/05/24 12:35:20;;;;;;;1.02;0.50;;;15.30;67.80;;;;;;5031038;28;20618;-92
2021/05/24 12:38:20;;;;;;;0.60;0.52;;;15.30;67.40;;;;;;5012081;28;20029;-92
2021/05/24 12:40:53;;;;;;;0.57;0.57;;;15.40;67.00;;;;;;4998414;28;20061;-91
2021/05/24 12:43:19;;;;;;;;;;;15.40;66.70;;;;;;5020579;28;20030;-89
2021/05/24 12:45:46;;;;;;;0.85;0.45;;;15.40;66.80;;;;;;5020589;28;19975;-92
2021/05/24 12:48:24;;;;;;;0.93;0.63;;;15.30;67.10;;;;;;5008083;28;20021;-90
2021/05/24 12:50:50;;;;;;;0.50;0.50;;;15.30;66.80;;;;;;4995032;28;20030;-91
2021/05/24 12:53:18;;;;;;;0.60;0.60;;;15.40;66.80;;;;;;5019759;28;20072;-91
2021/05/24 12:55:44;;;;;;;0.77;0.68;;;15.40;66.80;;;;;;5031106;28;20078;-92